Saturday, September 22, 2018, 9:06 AM EDT
Back to Local

KMTP, Montauk Airport

Location: Montauk, NY, United States Lat: 41.067
Local Time: 9:06 AM EDT (13:06 GMT) Lon: -71.917
Time Zone: US/Eastern Elev: 6 ft

Show me the last for .
Show Decoded

2018-09-22 08:54 METAR KMTP 221254Z AUTO 34013G22KT 22/16 A3005 RMK AO1 SLP176 T02170156 =
2018-09-22 07:54 METAR KMTP 221154Z AUTO 30009G14KT 23/21 A3001 RMK AO1 SLP160 T02330211 10233
                 20217 53026 =
2018-09-22 06:54 METAR KMTP 221054Z AUTO VRB06KT 23/21 A2997 RMK AO1 SLP148 T02280211 =
2018-09-22 05:54 METAR KMTP 220954Z AUTO 24007KT 22/21 A2994 RMK AO1 SLP138 T02220211 =
2018-09-22 04:54 METAR KMTP 220854Z AUTO 23009G19KT 23/21 A2993 RMK AO1 SLP134 T02280206 56016 =
2018-09-22 03:54 METAR KMTP 220754Z AUTO 22009G22KT 22/21 A2993 RMK AO1 SLP135 T02220206 =
2018-09-22 02:54 METAR KMTP 220654Z AUTO 22010G18KT 22/21 A2995 RMK AO1 SLP143 T02170206 =
2018-09-22 01:54 METAR KMTP 220554Z AUTO 22010G19KT 180V250 22/20 A2998 RMK AO1 SLP150 T02170200
                 10222 20206 58025 =
2018-09-22 00:54 METAR KMTP 220454Z AUTO 21007KT 22/20 A3001 RMK AO1 SLP161 T02170200 402170161 =
2018-09-21 23:54 METAR KMTP 220354Z AUTO 20008G15KT 22/19 A3002 RMK AO1 SLP166 T02170194 =
2018-09-21 22:54 METAR KMTP 220254Z AUTO 21008KT 180V250 22/19 A3005 RMK AO1 SLP175 T02170194
                 55004 =
2018-09-21 21:54 METAR KMTP 220154Z AUTO 20007KT 170V230 21/19 A3004 RMK AO1 SLP173 T02110194 =
2018-09-21 20:54 METAR KMTP 220054Z AUTO 20008KT 170V240 21/19 A3005 RMK AO1 SLP175 T02110189 =
2018-09-21 19:54 METAR KMTP 212354Z AUTO 19006KT 21/18 A3006 RMK AO1 SLP179 T02110183 10211 20200
                 58025 =
2018-09-21 18:54 METAR KMTP 212254Z AUTO 19007KT 21/18 A3009 RMK AO1 SLP187 T02060178 =
2018-09-21 17:54 METAR KMTP 212154Z AUTO 20006KT 21/17 A3012 RMK AO1 SLP198 T02060167 =
2018-09-21 16:54 METAR KMTP 212054Z AUTO 19006KT 21/17 A3013 RMK AO1 SLP204 T02110167 58026 =
2018-09-21 15:54 METAR KMTP 211954Z AUTO 20006KT 21/17 A3017 RMK AO1 SLP216 T02060167 =
2018-09-21 14:54 METAR KMTP 211854Z AUTO 18006KT 21/16 A3019 RMK AO1 SLP222 T02060156 =
2018-09-21 13:54 METAR KMTP 211754Z AUTO VRB06KT 21/16 A3021 RMK AO1 SLP230 T02060156 10211 20183
                 57023 =
2018-09-21 12:54 METAR KMTP 211654Z AUTO VRB05KT 21/16 A3023 RMK AO1 SLP238 T02060156 =
2018-09-21 11:54 METAR KMTP 211554Z AUTO VRB05KT 21/14 A3026 RMK AO1 SLP245 T02060144 =
2018-09-21 10:54 METAR KMTP 211454Z AUTO 16005KT 20/14 A3028 RMK AO1 SLP253 T02000144 58008 =
2018-09-21 09:54 METAR KMTP 211354Z AUTO VRB06KT 20/14 A3029 RMK AO1 SLP256 T02000144 =

Support USWX by starting your Amazon purchase here.